sensor_id;sensor_type;location;lat;lon;timestamp;temperature;humidity
41142;SHT31;63666;52.284;20.890;2023-03-23T00:00:48;20.92;43.44
41142;SHT31;63666;52.284;20.890;2023-03-23T00:03:24;20.91;43.43
41142;SHT31;63666;52.284;20.890;2023-03-23T00:06:02;20.92;43.41
41142;SHT31;63666;52.284;20.890;2023-03-23T00:08:41;20.92;43.41
41142;SHT31;63666;52.284;20.890;2023-03-23T00:11:19;20.91;43.41
41142;SHT31;63666;52.284;20.890;2023-03-23T00:13:59;20.89;43.42
41142;SHT31;63666;52.284;20.890;2023-03-23T00:16:33;20.89;43.44
41142;SHT31;63666;52.284;20.890;2023-03-23T00:19:11;20.89;43.43
41142;SHT31;63666;52.284;20.890;2023-03-23T00:21:47;20.87;43.45
41142;SHT31;63666;52.284;20.890;2023-03-23T00:24:23;20.83;43.49
41142;SHT31;63666;52.284;20.890;2023-03-23T00:26:59;20.83;43.54
41142;SHT31;63666;52.284;20.890;2023-03-23T00:29:35;20.84;43.49
41142;SHT31;63666;52.284;20.890;2023-03-23T00:32:11;20.82;43.52
41142;SHT31;63666;52.284;20.890;2023-03-23T00:34:48;20.84;43.48
41142;SHT31;63666;52.284;20.890;2023-03-23T00:37:24;20.83;43.47
41142;SHT31;63666;52.284;20.890;2023-03-23T00:40:05;20.77;43.62
41142;SHT31;63666;52.284;20.890;2023-03-23T00:42:44;20.74;43.68
41142;SHT31;63666;52.284;20.890;2023-03-23T00:45:20;20.81;43.52
41142;SHT31;63666;52.284;20.890;2023-03-23T00:47:57;20.83;43.48
41142;SHT31;63666;52.284;20.890;2023-03-23T00:50:34;20.81;43.50
41142;SHT31;63666;52.284;20.890;2023-03-23T00:53:10;20.78;43.58
41142;SHT31;63666;52.284;20.890;2023-03-23T00:55:47;20.80;43.56
41142;SHT31;63666;52.284;20.890;2023-03-23T00:58:23;20.84;43.47
41142;SHT31;63666;52.284;20.890;2023-03-23T01:00:58;20.85;43.46
41142;SHT31;63666;52.284;20.890;2023-03-23T01:03:36;20.79;43.60
41142;SHT31;63666;52.284;20.890;2023-03-23T01:06:13;20.79;43.57
41142;SHT31;63666;52.284;20.890;2023-03-23T01:08:51;20.79;43.54
41142;SHT31;63666;52.284;20.890;2023-03-23T01:11:28;20.77;43.60
41142;SHT31;63666;52.284;20.890;2023-03-23T01:14:05;20.72;43.70
41142;SHT31;63666;52.284;20.890;2023-03-23T01:16:43;20.78;43.61
41142;SHT31;63666;52.284;20.890;2023-03-23T01:19:21;20.74;43.70
41142;SHT31;63666;52.284;20.890;2023-03-23T01:21:58;20.79;43.62
41142;SHT31;63666;52.284;20.890;2023-03-23T01:24:33;20.82;43.55
41142;SHT31;63666;52.284;20.890;2023-03-23T01:27:10;20.76;43.68
41142;SHT31;63666;52.284;20.890;2023-03-23T01:29:47;20.77;43.68
41142;SHT31;63666;52.284;20.890;2023-03-23T01:32:26;20.79;43.64
41142;SHT31;63666;52.284;20.890;2023-03-23T01:35:03;20.79;43.66
41142;SHT31;63666;52.284;20.890;2023-03-23T01:37:39;20.79;43.67
41142;SHT31;63666;52.284;20.890;2023-03-23T01:40:16;20.79;43.63
41142;SHT31;63666;52.284;20.890;2023-03-23T01:42:53;20.79;43.62
41142;SHT31;63666;52.284;20.890;2023-03-23T01:45:31;20.79;43.68
41142;SHT31;63666;52.284;20.890;2023-03-23T01:48:09;20.81;43.63
41142;SHT31;63666;52.284;20.890;2023-03-23T01:50:50;20.80;43.66
41142;SHT31;63666;52.284;20.890;2023-03-23T01:53:34;20.77;43.70
41142;SHT31;63666;52.284;20.890;2023-03-23T01:56:16;20.76;43.71
41142;SHT31;63666;52.284;20.890;2023-03-23T01:58:55;20.78;43.68
41142;SHT31;63666;52.284;20.890;2023-03-23T02:01:33;20.78;43.69
41142;SHT31;63666;52.284;20.890;2023-03-23T02:04:15;20.78;43.63
41142;SHT31;63666;52.284;20.890;2023-03-23T02:06:53;20.76;43.65
41142;SHT31;63666;52.284;20.890;2023-03-23T02:09:32;20.74;43.70
41142;SHT31;63666;52.284;20.890;2023-03-23T02:12:07;20.76;43.68
41142;SHT31;63666;52.284;20.890;2023-03-23T02:14:40;20.74;43.70
41142;SHT31;63666;52.284;20.890;2023-03-23T02:17:16;20.74;43.67
41142;SHT31;63666;52.284;20.890;2023-03-23T02:20:05;20.74;43.70
41142;SHT31;63666;52.284;20.890;2023-03-23T02:26:09;20.71;43.73
41142;SHT31;63666;52.284;20.890;2023-03-23T02:29:08;20.71;43.70
41142;SHT31;63666;52.284;20.890;2023-03-23T02:32:13;20.72;43.73
41142;SHT31;63666;52.284;20.890;2023-03-23T02:35:09;20.70;43.73
41142;SHT31;63666;52.284;20.890;2023-03-23T02:37:49;20.70;43.75
41142;SHT31;63666;52.284;20.890;2023-03-23T02:40:30;20.70;43.74
41142;SHT31;63666;52.284;20.890;2023-03-23T02:43:13;20.69;43.77
41142;SHT31;63666;52.284;20.890;2023-03-23T02:45:53;20.69;43.71
41142;SHT31;63666;52.284;20.890;2023-03-23T02:48:29;20.70;43.72
41142;SHT31;63666;52.284;20.890;2023-03-23T02:51:06;20.70;43.70
41142;SHT31;63666;52.284;20.890;2023-03-23T02:53:41;20.68;43.73
41142;SHT31;63666;52.284;20.890;2023-03-23T02:56:19;20.68;43.72
41142;SHT31;63666;52.284;20.890;2023-03-23T02:58:59;20.66;43.79
41142;SHT31;63666;52.284;20.890;2023-03-23T03:01:48;20.67;43.78
41142;SHT31;63666;52.284;20.890;2023-03-23T03:04:35;20.67;43.80
41142;SHT31;63666;52.284;20.890;2023-03-23T03:10:25;20.71;43.73
41142;SHT31;63666;52.284;20.890;2023-03-23T03:13:07;20.68;43.78
41142;SHT31;63666;52.284;20.890;2023-03-23T03:15:49;20.67;43.80
41142;SHT31;63666;52.284;20.890;2023-03-23T03:18:34;20.67;43.80
41142;SHT31;63666;52.284;20.890;2023-03-23T03:21:16;20.69;43.72
41142;SHT31;63666;52.284;20.890;2023-03-23T03:23:55;20.68;43.76
41142;SHT31;63666;52.284;20.890;2023-03-23T03:26:32;20.65;43.79
41142;SHT31;63666;52.284;20.890;2023-03-23T03:29:17;20.66;43.79
41142;SHT31;63666;52.284;20.890;2023-03-23T03:31:53;20.65;43.80
41142;SHT31;63666;52.284;20.890;2023-03-23T03:34:30;20.64;43.84
41142;SHT31;63666;52.284;20.890;2023-03-23T03:37:08;20.62;43.85
41142;SHT31;63666;52.284;20.890;2023-03-23T03:39:44;20.61;43.83
41142;SHT31;63666;52.284;20.890;2023-03-23T03:42:22;20.60;43.87
41142;SHT31;63666;52.284;20.890;2023-03-23T03:44:59;20.63;43.81
41142;SHT31;63666;52.284;20.890;2023-03-23T03:47:36;20.63;43.80
41142;SHT31;63666;52.284;20.890;2023-03-23T03:50:14;20.62;43.83
41142;SHT31;63666;52.284;20.890;2023-03-23T03:52:50;20.59;43.83
41142;SHT31;63666;52.284;20.890;2023-03-23T03:55:33;20.58;43.88
41142;SHT31;63666;52.284;20.890;2023-03-23T03:58:09;20.58;43.87
41142;SHT31;63666;52.284;20.890;2023-03-23T04:00:45;20.57;43.88
41142;SHT31;63666;52.284;20.890;2023-03-23T04:03:23;20.59;43.82
41142;SHT31;63666;52.284;20.890;2023-03-23T04:06:00;20.60;43.87
41142;SHT31;63666;52.284;20.890;2023-03-23T04:08:39;20.61;43.98
41142;SHT31;63666;52.284;20.890;2023-03-23T04:11:17;20.60;44.50
41142;SHT31;63666;52.284;20.890;2023-03-23T04:13:54;20.61;44.81
41142;SHT31;63666;52.284;20.890;2023-03-23T04:16:31;20.60;44.80
41142;SHT31;63666;52.284;20.890;2023-03-23T04:19:07;20.61;44.82
41142;SHT31;63666;52.284;20.890;2023-03-23T04:21:44;20.61;44.89
41142;SHT31;63666;52.284;20.890;2023-03-23T04:24:22;20.61;44.95
41142;SHT31;63666;52.284;20.890;2023-03-23T04:27:01;20.61;44.97
41142;SHT31;63666;52.284;20.890;2023-03-23T04:29:36;20.61;45.04
41142;SHT31;63666;52.284;20.890;2023-03-23T04:32:13;20.60;45.08
41142;SHT31;63666;52.284;20.890;2023-03-23T04:34:49;20.58;45.10
41142;SHT31;63666;52.284;20.890;2023-03-23T04:37:26;20.59;45.12
41142;SHT31;63666;52.284;20.890;2023-03-23T04:40:04;20.60;45.09
41142;SHT31;63666;52.284;20.890;2023-03-23T04:42:45;20.59;45.10
41142;SHT31;63666;52.284;20.890;2023-03-23T04:45:21;20.59;45.09
41142;SHT31;63666;52.284;20.890;2023-03-23T04:48:00;20.58;45.10
41142;SHT31;63666;52.284;20.890;2023-03-23T04:50:35;20.57;45.11
41142;SHT31;63666;52.284;20.890;2023-03-23T04:53:09;20.56;45.18
41142;SHT31;63666;52.284;20.890;2023-03-23T04:55:49;20.49;45.31
41142;SHT31;63666;52.284;20.890;2023-03-23T04:58:26;20.55;45.21
41142;SHT31;63666;52.284;20.890;2023-03-23T05:01:03;20.63;45.04
41142;SHT31;63666;52.284;20.890;2023-03-23T05:03:37;20.63;44.99
41142;SHT31;63666;52.284;20.890;2023-03-23T05:06:11;20.70;44.83
41142;SHT31;63666;52.284;20.890;2023-03-23T05:08:46;20.78;44.68
41142;SHT31;63666;52.284;20.890;2023-03-23T05:11:19;20.84;44.52
41142;SHT31;63666;52.284;20.890;2023-03-23T05:13:58;20.88;44.43
41142;SHT31;63666;52.284;20.890;2023-03-23T05:16:39;20.96;44.25
41142;SHT31;63666;52.284;20.890;2023-03-23T05:19:19;21.01;44.15
41142;SHT31;63666;52.284;20.890;2023-03-23T05:21:58;21.08;44.04
41142;SHT31;63666;52.284;20.890;2023-03-23T05:24:35;21.14;43.93
41142;SHT31;63666;52.284;20.890;2023-03-23T05:27:09;21.19;43.84
41142;SHT31;63666;52.284;20.890;2023-03-23T05:29:43;21.25;43.74
41142;SHT31;63666;52.284;20.890;2023-03-23T05:32:20;21.32;43.63
41142;SHT31;63666;52.284;20.890;2023-03-23T05:35:00;21.36;43.60
41142;SHT31;63666;52.284;20.890;2023-03-23T05:37:37;21.40;43.53
41142;SHT31;63666;52.284;20.890;2023-03-23T05:40:14;21.43;43.49
41142;SHT31;63666;52.284;20.890;2023-03-23T05:42:50;21.45;43.46
41142;SHT31;63666;52.284;20.890;2023-03-23T05:45:27;21.49;43.40
41142;SHT31;63666;52.284;20.890;2023-03-23T05:48:03;21.53;43.34
41142;SHT31;63666;52.284;20.890;2023-03-23T05:50:40;21.55;43.29
41142;SHT31;63666;52.284;20.890;2023-03-23T05:53:16;21.56;43.30
41142;SHT31;63666;52.284;20.890;2023-03-23T05:55:52;21.55;43.30
41142;SHT31;63666;52.284;20.890;2023-03-23T05:58:31;21.54;43.30
41142;SHT31;63666;52.284;20.890;2023-03-23T06:01:07;21.55;43.32
41142;SHT31;63666;52.284;20.890;2023-03-23T06:03:44;21.54;43.35
41142;SHT31;63666;52.284;20.890;2023-03-23T06:06:23;21.54;43.35
41142;SHT31;63666;52.284;20.890;2023-03-23T06:09:01;21.53;43.37
41142;SHT31;63666;52.284;20.890;2023-03-23T06:11:40;21.51;43.40
41142;SHT31;63666;52.284;20.890;2023-03-23T06:14:16;21.51;43.44
41142;SHT31;63666;52.284;20.890;2023-03-23T06:16:53;21.50;43.41
41142;SHT31;63666;52.284;20.890;2023-03-23T06:19:29;21.50;43.40
41142;SHT31;63666;52.284;20.890;2023-03-23T06:22:06;21.51;43.35
41142;SHT31;63666;52.284;20.890;2023-03-23T06:24:44;21.52;43.87
41142;SHT31;63666;52.284;20.890;2023-03-23T06:27:22;21.52;44.24
41142;SHT31;63666;52.284;20.890;2023-03-23T06:29:59;21.52;44.42
41142;SHT31;63666;52.284;20.890;2023-03-23T06:32:34;21.52;44.22
41142;SHT31;63666;52.284;20.890;2023-03-23T06:35:11;21.52;44.14
41142;SHT31;63666;52.284;20.890;2023-03-23T06:37:51;21.49;44.15
41142;SHT31;63666;52.284;20.890;2023-03-23T06:40:31;21.50;44.24
41142;SHT31;63666;52.284;20.890;2023-03-23T06:43:06;21.49;44.13
41142;SHT31;63666;52.284;20.890;2023-03-23T06:45:45;21.49;44.19
41142;SHT31;63666;52.284;20.890;2023-03-23T06:48:20;21.52;44.17
41142;SHT31;63666;52.284;20.890;2023-03-23T06:50:59;21.54;44.18
41142;SHT31;63666;52.284;20.890;2023-03-23T06:53:35;21.59;44.06
41142;SHT31;63666;52.284;20.890;2023-03-23T06:56:12;21.68;43.86
41142;SHT31;63666;52.284;20.890;2023-03-23T06:58:48;21.78;43.66
41142;SHT31;63666;52.284;20.890;2023-03-23T07:01:24;21.87;43.50
41142;SHT31;63666;52.284;20.890;2023-03-23T07:04:00;21.93;43.37
41142;SHT31;63666;52.284;20.890;2023-03-23T07:06:36;21.99;43.27
41142;SHT31;63666;52.284;20.890;2023-03-23T07:09:10;22.02;43.21
41142;SHT31;63666;52.284;20.890;2023-03-23T07:11:46;22.06;43.14
41142;SHT31;63666;52.284;20.890;2023-03-23T07:14:23;22.09;43.11
41142;SHT31;63666;52.284;20.890;2023-03-23T07:17:00;22.11;43.07
41142;SHT31;63666;52.284;20.890;2023-03-23T07:19:36;22.14;43.00
41142;SHT31;63666;52.284;20.890;2023-03-23T07:22:12;22.14;43.00
41142;SHT31;63666;52.284;20.890;2023-03-23T07:24:50;22.12;43.00
41142;SHT31;63666;52.284;20.890;2023-03-23T07:27:26;22.10;43.04
41142;SHT31;63666;52.284;20.890;2023-03-23T07:30:03;22.09;43.04
41142;SHT31;63666;52.284;20.890;2023-03-23T07:32:39;22.12;42.99
41142;SHT31;63666;52.284;20.890;2023-03-23T07:35:13;22.18;42.90
41142;SHT31;63666;52.284;20.890;2023-03-23T07:37:49;22.21;42.80
41142;SHT31;63666;52.284;20.890;2023-03-23T07:40:25;22.22;42.80
41142;SHT31;63666;52.284;20.890;2023-03-23T07:43:04;22.23;42.72
41142;SHT31;63666;52.284;20.890;2023-03-23T07:45:42;22.21;43.16
41142;SHT31;63666;52.284;20.890;2023-03-23T07:48:24;22.21;43.01
41142;SHT31;63666;52.284;20.890;2023-03-23T07:50:59;22.19;43.12
41142;SHT31;63666;52.284;20.890;2023-03-23T07:53:33;22.17;43.28
41142;SHT31;63666;52.284;20.890;2023-03-23T07:56:09;22.15;43.20
41142;SHT31;63666;52.284;20.890;2023-03-23T07:58:44;22.18;43.32
41142;SHT31;63666;52.284;20.890;2023-03-23T08:01:17;22.20;43.30
41142;SHT31;63666;52.284;20.890;2023-03-23T08:03:54;22.25;43.23
41142;SHT31;63666;52.284;20.890;2023-03-23T08:06:31;22.30;43.23
41142;SHT31;63666;52.284;20.890;2023-03-23T08:09:05;22.31;43.22
41142;SHT31;63666;52.284;20.890;2023-03-23T08:11:38;22.34;43.14
41142;SHT31;63666;52.284;20.890;2023-03-23T08:14:12;22.35;43.12
41142;SHT31;63666;52.284;20.890;2023-03-23T08:16:48;22.36;43.07
41142;SHT31;63666;52.284;20.890;2023-03-23T08:19:26;22.37;43.01
41142;SHT31;63666;52.284;20.890;2023-03-23T08:22:07;22.38;42.91
41142;SHT31;63666;52.284;20.890;2023-03-23T08:24:45;22.38;42.91
41142;SHT31;63666;52.284;20.890;2023-03-23T08:27:23;22.38;42.92
41142;SHT31;63666;52.284;20.890;2023-03-23T08:30:01;22.37;42.94
41142;SHT31;63666;52.284;20.890;2023-03-23T08:32:39;22.37;43.04
41142;SHT31;63666;52.284;20.890;2023-03-23T08:35:16;22.36;42.98
41142;SHT31;63666;52.284;20.890;2023-03-23T08:37:53;22.36;42.93
41142;SHT31;63666;52.284;20.890;2023-03-23T08:40:28;22.36;42.98
41142;SHT31;63666;52.284;20.890;2023-03-23T08:43:06;22.37;42.89
41142;SHT31;63666;52.284;20.890;2023-03-23T08:45:44;22.37;42.84
41142;SHT31;63666;52.284;20.890;2023-03-23T08:48:21;22.40;42.71
41142;SHT31;63666;52.284;20.890;2023-03-23T08:50:55;22.41;42.68
41142;SHT31;63666;52.284;20.890;2023-03-23T08:53:34;22.40;42.65
41142;SHT31;63666;52.284;20.890;2023-03-23T08:56:11;22.44;42.54
41142;SHT31;63666;52.284;20.890;2023-03-23T08:58:47;22.43;42.44
41142;SHT31;63666;52.284;20.890;2023-03-23T09:01:25;22.39;42.52
41142;SHT31;63666;52.284;20.890;2023-03-23T09:04:02;22.37;42.51
41142;SHT31;63666;52.284;20.890;2023-03-23T09:06:39;22.35;42.51
41142;SHT31;63666;52.284;20.890;2023-03-23T09:09:16;22.31;42.63
41142;SHT31;63666;52.284;20.890;2023-03-23T09:11:54;22.31;42.58
41142;SHT31;63666;52.284;20.890;2023-03-23T09:14:30;22.33;42.50
41142;SHT31;63666;52.284;20.890;2023-03-23T09:17:09;22.33;42.50
41142;SHT31;63666;52.284;20.890;2023-03-23T09:19:45;22.32;42.42
41142;SHT31;63666;52.284;20.890;2023-03-23T09:22:22;22.33;42.41
41142;SHT31;63666;52.284;20.890;2023-03-23T09:24:58;22.32;42.41
41142;SHT31;63666;52.284;20.890;2023-03-23T09:27:35;22.33;42.35
41142;SHT31;63666;52.284;20.890;2023-03-23T09:30:11;22.32;42.30
41142;SHT31;63666;52.284;20.890;2023-03-23T09:32:48;22.33;42.21
41142;SHT31;63666;52.284;20.890;2023-03-23T09:35:27;22.33;42.18
41142;SHT31;63666;52.284;20.890;2023-03-23T09:38:07;22.32;42.20
41142;SHT31;63666;52.284;20.890;2023-03-23T09:40:45;22.32;42.22
41142;SHT31;63666;52.284;20.890;2023-03-23T09:43:35;22.34;42.11
41142;SHT31;63666;52.284;20.890;2023-03-23T09:46:28;22.40;41.99
41142;SHT31;63666;52.284;20.890;2023-03-23T09:49:21;22.43;41.87
41142;SHT31;63666;52.284;20.890;2023-03-23T09:52:01;22.41;41.91
41142;SHT31;63666;52.284;20.890;2023-03-23T09:54:45;22.43;41.83
41142;SHT31;63666;52.284;20.890;2023-03-23T09:57:24;22.42;41.86
41142;SHT31;63666;52.284;20.890;2023-03-23T10:00:06;22.41;41.88
41142;SHT31;63666;52.284;20.890;2023-03-23T10:02:51;22.42;41.89
41142;SHT31;63666;52.284;20.890;2023-03-23T10:05:35;22.50;41.74
41142;SHT31;63666;52.284;20.890;2023-03-23T10:08:13;22.49;41.78
41142;SHT31;63666;52.284;20.890;2023-03-23T10:10:52;22.48;41.80
41142;SHT31;63666;52.284;20.890;2023-03-23T10:13:44;22.50;41.77
41142;SHT31;63666;52.284;20.890;2023-03-23T10:16:33;22.51;41.78
41142;SHT31;63666;52.284;20.890;2023-03-23T10:19:12;22.50;41.80
41142;SHT31;63666;52.284;20.890;2023-03-23T10:21:56;22.49;41.80
41142;SHT31;63666;52.284;20.890;2023-03-23T10:24:37;22.50;41.80
41142;SHT31;63666;52.284;20.890;2023-03-23T10:27:22;22.51;41.80
41142;SHT31;63666;52.284;20.890;2023-03-23T10:30:03;22.54;41.70
41142;SHT31;63666;52.284;20.890;2023-03-23T10:32:48;22.61;41.56
41142;SHT31;63666;52.284;20.890;2023-03-23T10:35:28;22.65;41.42
41142;SHT31;63666;52.284;20.890;2023-03-23T10:38:09;22.63;41.40
41142;SHT31;63666;52.284;20.890;2023-03-23T10:40:50;22.63;41.43
41142;SHT31;63666;52.284;20.890;2023-03-23T10:43:28;22.61;41.41
41142;SHT31;63666;52.284;20.890;2023-03-23T10:46:21;22.63;41.38
41142;SHT31;63666;52.284;20.890;2023-03-23T10:49:05;22.68;41.23
41142;SHT31;63666;52.284;20.890;2023-03-23T10:51:47;22.72;41.19
41142;SHT31;63666;52.284;20.890;2023-03-23T10:54:35;22.67;41.21
41142;SHT31;63666;52.284;20.890;2023-03-23T10:57:22;22.65;41.22
41142;SHT31;63666;52.284;20.890;2023-03-23T10:59:59;22.60;41.26
41142;SHT31;63666;52.284;20.890;2023-03-23T11:02:39;22.56;41.36
41142;SHT31;63666;52.284;20.890;2023-03-23T11:05:18;22.57;41.30
41142;SHT31;63666;52.284;20.890;2023-03-23T11:07:58;22.57;41.28
41142;SHT31;63666;52.284;20.890;2023-03-23T11:10:38;22.51;41.33
41142;SHT31;63666;52.284;20.890;2023-03-23T11:13:18;22.48;41.40
41142;SHT31;63666;52.284;20.890;2023-03-23T11:16:00;22.52;41.28
41142;SHT31;63666;52.284;20.890;2023-03-23T11:18:36;22.54;41.22
41142;SHT31;63666;52.284;20.890;2023-03-23T11:21:14;22.58;41.19
41142;SHT31;63666;52.284;20.890;2023-03-23T11:23:50;22.60;41.09
41142;SHT31;63666;52.284;20.890;2023-03-23T11:26:27;22.64;41.04
41142;SHT31;63666;52.284;20.890;2023-03-23T11:29:04;22.72;40.88
41142;SHT31;63666;52.284;20.890;2023-03-23T11:31:45;22.77;40.76
41142;SHT31;63666;52.284;20.890;2023-03-23T11:34:22;22.81;40.69
41142;SHT31;63666;52.284;20.890;2023-03-23T11:37:05;22.79;40.70
41142;SHT31;63666;52.284;20.890;2023-03-23T11:39:49;22.75;40.77
41142;SHT31;63666;52.284;20.890;2023-03-23T11:42:35;22.79;41.49
41142;SHT31;63666;52.284;20.890;2023-03-23T11:45:15;22.98;40.87
41142;SHT31;63666;52.284;20.890;2023-03-23T11:47:54;23.09;40.26
41142;SHT31;63666;52.284;20.890;2023-03-23T11:50:44;23.18;40.03
41142;SHT31;63666;52.284;20.890;2023-03-23T11:53:30;23.18;40.08
41142;SHT31;63666;52.284;20.890;2023-03-23T11:56:19;23.15;40.11
41142;SHT31;63666;52.284;20.890;2023-03-23T11:58:58;23.15;40.19
41142;SHT31;63666;52.284;20.890;2023-03-23T12:01:39;23.13;40.18
41142;SHT31;63666;52.284;20.890;2023-03-23T12:07:30;23.17;40.02
41142;SHT31;63666;52.284;20.890;2023-03-23T12:10:24;23.19;39.98
41142;SHT31;63666;52.284;20.890;2023-03-23T12:13:09;23.20;40.03
41142;SHT31;63666;52.284;20.890;2023-03-23T12:16:00;23.13;40.00
41142;SHT31;63666;52.284;20.890;2023-03-23T12:18:47;22.99;40.20
41142;SHT31;63666;52.284;20.890;2023-03-23T12:21:28;23.10;40.07
41142;SHT31;63666;52.284;20.890;2023-03-23T12:24:13;23.19;39.86
41142;SHT31;63666;52.284;20.890;2023-03-23T12:26:59;23.23;39.83
41142;SHT31;63666;52.284;20.890;2023-03-23T12:29:45;23.22;39.85
41142;SHT31;63666;52.284;20.890;2023-03-23T12:32:49;23.28;39.72
41142;SHT31;63666;52.284;20.890;2023-03-23T12:35:48;23.42;39.43
41142;SHT31;63666;52.284;20.890;2023-03-23T12:38:45;23.36;39.49
41142;SHT31;63666;52.284;20.890;2023-03-23T12:41:34;23.38;39.57
41142;SHT31;63666;52.284;20.890;2023-03-23T12:44:16;23.42;39.41
41142;SHT31;63666;52.284;20.890;2023-03-23T12:47:11;23.32;39.53
41142;SHT31;63666;52.284;20.890;2023-03-23T12:50:05;23.31;39.54
41142;SHT31;63666;52.284;20.890;2023-03-23T12:52:49;23.44;39.77
41142;SHT31;63666;52.284;20.890;2023-03-23T12:55:30;23.53;39.27
41142;SHT31;63666;52.284;20.890;2023-03-23T12:58:12;23.61;39.14
41142;SHT31;63666;52.284;20.890;2023-03-23T13:00:56;23.59;39.11
41142;SHT31;63666;52.284;20.890;2023-03-23T13:03:33;23.59;39.09
41142;SHT31;63666;52.284;20.890;2023-03-23T13:06:15;23.51;39.20
41142;SHT31;63666;52.284;20.890;2023-03-23T13:08:56;23.48;39.32
41142;SHT31;63666;52.284;20.890;2023-03-23T13:11:36;23.43;39.39
41142;SHT31;63666;52.284;20.890;2023-03-23T13:14:21;23.35;39.50
41142;SHT31;63666;52.284;20.890;2023-03-23T13:17:10;23.36;39.50
41142;SHT31;63666;52.284;20.890;2023-03-23T13:19:59;23.44;39.36
41142;SHT31;63666;52.284;20.890;2023-03-23T13:23:02;23.44;39.33
41142;SHT31;63666;52.284;20.890;2023-03-23T13:25:46;23.34;39.50
41142;SHT31;63666;52.284;20.890;2023-03-23T13:28:26;23.23;39.74
41142;SHT31;63666;52.284;20.890;2023-03-23T13:31:03;23.19;39.78
41142;SHT31;63666;52.284;20.890;2023-03-23T13:33:46;23.30;39.64
41142;SHT31;63666;52.284;20.890;2023-03-23T13:36:27;23.26;39.71
41142;SHT31;63666;52.284;20.890;2023-03-23T13:39:04;23.22;39.76
41142;SHT31;63666;52.284;20.890;2023-03-23T13:42:01;23.15;39.88
41142;SHT31;63666;52.284;20.890;2023-03-23T13:45:04;23.11;39.82
41142;SHT31;63666;52.284;20.890;2023-03-23T13:48:01;23.05;39.81
41142;SHT31;63666;52.284;20.890;2023-03-23T13:50:53;22.92;40.11
41142;SHT31;63666;52.284;20.890;2023-03-23T13:53:30;22.85;40.17
41142;SHT31;63666;52.284;20.890;2023-03-23T13:56:18;22.76;40.31
41142;SHT31;63666;52.284;20.890;2023-03-23T13:59:12;22.72;40.34
41142;SHT31;63666;52.284;20.890;2023-03-23T14:05:10;22.62;40.47
41142;SHT31;63666;52.284;20.890;2023-03-23T14:08:05;22.57;40.50
41142;SHT31;63666;52.284;20.890;2023-03-23T14:10:53;22.51;40.55
41142;SHT31;63666;52.284;20.890;2023-03-23T14:13:33;22.50;40.56
41142;SHT31;63666;52.284;20.890;2023-03-23T14:16:31;22.46;40.49
41142;SHT31;63666;52.284;20.890;2023-03-23T14:19:17;22.45;40.54
41142;SHT31;63666;52.284;20.890;2023-03-23T14:21:57;22.43;40.49
41142;SHT31;63666;52.284;20.890;2023-03-23T14:24:38;22.40;40.48
41142;SHT31;63666;52.284;20.890;2023-03-23T14:27:15;22.37;40.60
41142;SHT31;63666;52.284;20.890;2023-03-23T14:29:58;22.35;40.57
41142;SHT31;63666;52.284;20.890;2023-03-23T14:32:39;22.35;40.58
41142;SHT31;63666;52.284;20.890;2023-03-23T14:35:17;22.35;40.62
41142;SHT31;63666;52.284;20.890;2023-03-23T14:37:55;22.32;40.69
41142;SHT31;63666;52.284;20.890;2023-03-23T14:40:31;22.27;40.64
41142;SHT31;63666;52.284;20.890;2023-03-23T14:43:08;22.24;40.66
41142;SHT31;63666;52.284;20.890;2023-03-23T14:45:47;22.23;40.72
41142;SHT31;63666;52.284;20.890;2023-03-23T14:48:29;22.21;40.75
41142;SHT31;63666;52.284;20.890;2023-03-23T14:51:02;22.20;40.71
41142;SHT31;63666;52.284;20.890;2023-03-23T14:53:38;22.20;40.79
41142;SHT31;63666;52.284;20.890;2023-03-23T14:56:14;22.19;40.79
41142;SHT31;63666;52.284;20.890;2023-03-23T14:58:51;22.16;40.86
41142;SHT31;63666;52.284;20.890;2023-03-23T15:01:32;22.16;40.83
41142;SHT31;63666;52.284;20.890;2023-03-23T15:04:13;22.13;40.89
41142;SHT31;63666;52.284;20.890;2023-03-23T15:06:49;22.11;40.89
41142;SHT31;63666;52.284;20.890;2023-03-23T15:09:31;22.13;40.86
41142;SHT31;63666;52.284;20.890;2023-03-23T15:12:19;22.10;40.94
41142;SHT31;63666;52.284;20.890;2023-03-23T15:14:59;22.10;40.90
41142;SHT31;63666;52.284;20.890;2023-03-23T15:17:38;22.05;41.02
41142;SHT31;63666;52.284;20.890;2023-03-23T15:20:22;22.05;41.01
41142;SHT31;63666;52.284;20.890;2023-03-23T15:23:04;22.03;41.00
41142;SHT31;63666;52.284;20.890;2023-03-23T15:25:49;22.02;41.07
41142;SHT31;63666;52.284;20.890;2023-03-23T15:28:29;22.02;41.07
41142;SHT31;63666;52.284;20.890;2023-03-23T15:31:09;22.02;41.00
41142;SHT31;63666;52.284;20.890;2023-03-23T15:33:47;22.03;41.00
41142;SHT31;63666;52.284;20.890;2023-03-23T15:36:30;22.01;41.04
41142;SHT31;63666;52.284;20.890;2023-03-23T15:39:05;22.00;41.03
41142;SHT31;63666;52.284;20.890;2023-03-23T15:41:48;21.98;41.03
41142;SHT31;63666;52.284;20.890;2023-03-23T15:44:25;21.96;41.06
41142;SHT31;63666;52.284;20.890;2023-03-23T15:47:10;21.95;41.10
41142;SHT31;63666;52.284;20.890;2023-03-23T15:50:02;21.94;41.14
41142;SHT31;63666;52.284;20.890;2023-03-23T15:52:42;21.92;41.33
41142;SHT31;63666;52.284;20.890;2023-03-23T15:55:20;21.92;41.30
41142;SHT31;63666;52.284;20.890;2023-03-23T15:57:56;21.93;41.26
41142;SHT31;63666;52.284;20.890;2023-03-23T16:00:38;21.91;41.29
41142;SHT31;63666;52.284;20.890;2023-03-23T16:03:16;21.89;41.29
41142;SHT31;63666;52.284;20.890;2023-03-23T16:05:56;21.88;41.39
41142;SHT31;63666;52.284;20.890;2023-03-23T16:08:32;21.88;41.63
41142;SHT31;63666;52.284;20.890;2023-03-23T16:11:11;21.86;41.68
41142;SHT31;63666;52.284;20.890;2023-03-23T16:13:47;21.85;41.70
41142;SHT31;63666;52.284;20.890;2023-03-23T16:16:24;21.84;41.68
41142;SHT31;63666;52.284;20.890;2023-03-23T16:19:03;21.82;41.61
41142;SHT31;63666;52.284;20.890;2023-03-23T16:21:40;21.80;41.56
41142;SHT31;63666;52.284;20.890;2023-03-23T16:24:19;21.77;41.58
41142;SHT31;63666;52.284;20.890;2023-03-23T16:26:56;21.77;41.68
41142;SHT31;63666;52.284;20.890;2023-03-23T16:29:34;21.74;41.64
41142;SHT31;63666;52.284;20.890;2023-03-23T16:32:28;21.72;41.62
41142;SHT31;63666;52.284;20.890;2023-03-23T16:35:02;21.68;41.72
41142;SHT31;63666;52.284;20.890;2023-03-23T16:37:38;21.68;41.81
41142;SHT31;63666;52.284;20.890;2023-03-23T16:40:16;21.70;42.08
41142;SHT31;63666;52.284;20.890;2023-03-23T16:42:53;21.92;42.26
41142;SHT31;63666;52.284;20.890;2023-03-23T16:45:29;22.01;41.70